createdAt,value
2022-08-19T00:01:59.274Z,61.79
2022-08-19T00:04:30.801Z,62.46
2022-08-19T00:06:58.848Z,62.58
2022-08-19T00:09:26.418Z,63.03
2022-08-19T00:11:55.627Z,63.46
2022-08-19T00:14:23.735Z,63.59
2022-08-19T00:16:51.086Z,63.65
2022-08-19T00:19:18.611Z,63.52
2022-08-19T00:21:45.487Z,62.18
2022-08-19T00:24:15.369Z,63.25
2022-08-19T00:26:44.975Z,64.04
2022-08-19T00:29:14.601Z,62.60
2022-08-19T00:31:42.501Z,62.74
2022-08-19T00:34:09.362Z,62.71
2022-08-19T00:36:36.384Z,63.55
2022-08-19T00:39:03.239Z,62.98
2022-08-19T00:41:30.792Z,61.15
2022-08-19T00:44:06.134Z,60.37
2022-08-19T00:46:34.612Z,59.98
2022-08-19T00:49:07.796Z,61.27
2022-08-19T00:51:34.765Z,60.28
2022-08-19T00:54:04.396Z,60.06
2022-08-19T00:56:32.636Z,61.00
2022-08-19T00:59:00.746Z,62.39
2022-08-19T01:01:27.778Z,62.19
2022-08-19T01:03:57.615Z,61.99
2022-08-19T01:06:26.768Z,62.42
2022-08-19T01:08:55.427Z,62.49
2022-08-19T01:11:22.367Z,61.88
2022-08-19T01:13:51.286Z,63.08
2022-08-19T01:16:21.107Z,63.30
2022-08-19T01:18:48.578Z,64.17
2022-08-19T01:21:32.507Z,63.90
2022-08-19T01:23:59.401Z,63.08
2022-08-19T01:26:27.730Z,61.65
2022-08-19T01:28:59.546Z,62.89
2022-08-19T01:31:30.970Z,64.04
2022-08-19T01:34:02.818Z,64.47
2022-08-19T01:36:36.439Z,65.51
2022-08-19T01:39:07.952Z,65.63
2022-08-19T01:41:35.651Z,66.52
2022-08-19T01:44:17.915Z,66.18
2022-08-19T01:46:49.271Z,66.50
2022-08-19T01:49:18.364Z,67.36
2022-08-19T01:51:45.934Z,67.34
2022-08-19T01:54:15.084Z,66.49
2022-08-19T01:57:00.670Z,65.83
2022-08-19T01:59:27.734Z,66.35
2022-08-19T02:01:54.542Z,66.34
2022-08-19T02:04:21.463Z,65.72
2022-08-19T02:06:48.240Z,65.89
2022-08-19T02:09:15.216Z,66.09
2022-08-19T02:11:42.573Z,66.83
2022-08-19T02:14:10.077Z,67.07
2022-08-19T02:16:38.367Z,67.19
2022-08-19T02:19:05.863Z,65.76
2022-08-19T02:21:33.377Z,65.30
2022-08-19T02:24:00.365Z,66.50
2022-08-19T02:26:27.872Z,67.69
2022-08-19T02:28:55.337Z,68.58
2022-08-19T02:31:25.669Z,63.14
2022-08-19T02:33:56.849Z,61.15
2022-08-19T02:36:25.886Z,58.61
2022-08-19T02:38:54.958Z,58.10
2022-08-19T02:41:28.313Z,57.87
2022-08-19T02:44:26.644Z,58.45
2022-08-19T02:46:48.641Z,59.32
2022-08-19T02:49:15.471Z,60.03
2022-08-19T02:51:44.931Z,60.64
2022-08-19T02:54:13.711Z,60.65
2022-08-19T02:56:43.635Z,60.56
2022-08-19T02:59:11.305Z,60.54
2022-08-19T03:01:40.817Z,60.54
2022-08-19T03:04:12.143Z,60.55
2022-08-19T03:06:41.976Z,60.41
2022-08-19T03:09:09.496Z,60.73
2022-08-19T03:11:36.507Z,60.46
2022-08-19T03:14:04.846Z,60.41
2022-08-19T03:16:35.255Z,60.54
2022-08-19T03:19:02.866Z,61.29
2022-08-19T03:21:33.227Z,61.28
2022-08-19T03:24:04.430Z,60.90
2022-08-19T03:26:31.947Z,60.63
2022-08-19T03:28:59.173Z,61.13
2022-08-19T03:31:44.155Z,61.74
2022-08-19T03:34:19.238Z,61.64
2022-08-19T03:36:47.721Z,62.32
2022-08-19T03:39:16.454Z,62.83
2022-08-19T03:41:46.480Z,62.52
2022-08-19T03:44:22.203Z,63.37
2022-08-19T03:46:56.590Z,62.96
2022-08-19T03:49:27.223Z,64.46
2022-08-19T03:51:58.503Z,64.37
2022-08-19T03:54:27.508Z,64.87
2022-08-19T03:56:56.325Z,65.61
2022-08-19T03:59:29.993Z,66.41
2022-08-19T04:01:58.974Z,66.66
2022-08-19T04:04:29.049Z,66.24
2022-08-19T04:06:57.563Z,67.02
2022-08-19T04:09:24.843Z,67.37
2022-08-19T04:11:54.523Z,67.68
2022-08-19T04:14:27.033Z,67.16
2022-08-19T04:16:55.345Z,66.58
2022-08-19T04:19:22.398Z,67.02
2022-08-19T04:21:51.976Z,67.30
2022-08-19T04:24:20.139Z,67.75
2022-08-19T04:26:48.154Z,68.34
2022-08-19T04:29:18.476Z,68.72
2022-08-19T04:31:46.962Z,68.54
2022-08-19T04:34:17.016Z,67.92
2022-08-19T04:36:45.448Z,67.54
2022-08-19T04:39:18.099Z,66.43
2022-08-19T04:41:45.877Z,68.57
2022-08-19T04:44:13.944Z,67.81
2022-08-19T04:46:51.536Z,67.26
2022-08-19T04:49:23.832Z,66.78
2022-08-19T04:51:52.790Z,66.41
2022-08-19T04:54:37.080Z,65.99
2022-08-19T04:57:08.598Z,65.99
2022-08-19T04:59:37.054Z,66.35
2022-08-19T05:02:05.810Z,66.26
2022-08-19T05:04:32.783Z,66.59
2022-08-19T05:07:01.001Z,67.09
2022-08-19T05:09:52.551Z,67.45
2022-08-19T05:12:16.349Z,67.14
2022-08-19T05:14:43.151Z,66.99
2022-08-19T05:19:58.022Z,66.81
2022-08-19T05:22:25.185Z,66.92
2022-08-19T05:25:11.608Z,67.33
2022-08-19T05:27:39.934Z,66.90
2022-08-19T05:30:07.327Z,66.89
2022-08-19T05:32:34.388Z,66.42
2022-08-19T05:35:01.267Z,66.74
2022-08-19T05:37:28.268Z,66.73
2022-08-19T05:39:56.404Z,66.95
2022-08-19T05:42:24.018Z,67.11
2022-08-19T05:44:52.030Z,67.33
2022-08-19T05:47:20.047Z,67.53
2022-08-19T05:49:47.081Z,67.49
2022-08-19T05:52:15.731Z,67.92
2022-08-19T05:54:47.106Z,67.98
2022-08-19T05:57:18.113Z,67.89
2022-08-19T05:59:45.211Z,68.18
2022-08-19T06:02:13.116Z,68.37
2022-08-19T06:04:39.912Z,68.40
2022-08-19T06:07:12.303Z,68.59
2022-08-19T06:09:40.456Z,68.51
2022-08-19T06:12:08.274Z,68.36
2022-08-19T06:14:40.303Z,69.01
2022-08-19T06:17:09.366Z,69.12
2022-08-19T06:19:40.884Z,69.20
2022-08-19T06:22:08.828Z,69.40
2022-08-19T06:24:37.343Z,69.17
2022-08-19T06:27:04.934Z,69.32
2022-08-19T06:29:32.987Z,69.17
2022-08-19T06:32:01.882Z,69.16
2022-08-19T06:34:32.596Z,68.64
2022-08-19T06:37:01.690Z,68.56
2022-08-19T06:39:33.854Z,68.40
2022-08-19T06:42:02.860Z,68.56
2022-08-19T06:44:33.740Z,68.52
2022-08-19T06:47:09.418Z,68.28
2022-08-19T06:49:37.259Z,68.00
2022-08-19T06:52:05.030Z,67.96
2022-08-19T06:54:32.960Z,67.47
2022-08-19T06:57:07.980Z,67.15
2022-08-19T06:59:34.874Z,66.80
2022-08-19T07:02:05.843Z,66.68
2022-08-19T07:04:34.233Z,66.00
2022-08-19T07:07:20.291Z,65.89
2022-08-19T07:09:58.459Z,66.14
2022-08-19T07:12:31.976Z,65.61
2022-08-19T07:14:59.453Z,65.19
2022-08-19T07:17:27.334Z,64.59
2022-08-19T07:19:54.839Z,63.95
2022-08-19T07:22:22.703Z,63.77
2022-08-19T07:24:51.944Z,62.82
2022-08-19T07:27:19.335Z,63.13
2022-08-19T07:29:57.097Z,63.07
2022-08-19T07:32:25.905Z,62.62
2022-08-19T07:34:52.706Z,62.38
2022-08-19T07:37:19.530Z,62.52
2022-08-19T07:39:46.337Z,61.92
2022-08-19T07:42:13.603Z,61.98
2022-08-19T07:44:41.623Z,61.59
2022-08-19T07:47:08.613Z,61.61
2022-08-19T07:49:55.550Z,60.88
2022-08-19T07:52:22.847Z,60.31
2022-08-19T07:54:49.672Z,60.21
2022-08-19T07:57:17.748Z,59.74
2022-08-19T07:59:44.598Z,58.51
2022-08-19T08:02:11.590Z,57.75
2022-08-19T08:04:38.483Z,57.62
2022-08-19T08:07:07.306Z,57.34
2022-08-19T08:09:39.289Z,56.71
2022-08-19T08:12:34.287Z,56.03
2022-08-19T08:15:08.947Z,56.55
2022-08-19T08:17:49.821Z,56.14
2022-08-19T08:20:20.663Z,55.73
2022-08-19T08:22:48.912Z,54.62
2022-08-19T08:25:20.415Z,54.45
2022-08-19T08:27:48.664Z,54.29
2022-08-19T08:30:24.355Z,53.62
2022-08-19T08:32:52.580Z,53.31
2022-08-19T08:35:23.116Z,52.99
2022-08-19T08:37:51.712Z,53.21
2022-08-19T08:40:39.997Z,52.73
2022-08-19T08:43:15.928Z,54.00
2022-08-19T08:45:53.927Z,52.30
2022-08-19T08:48:45.470Z,51.21
2022-08-19T08:51:20.595Z,52.06
2022-08-19T08:53:51.699Z,52.12
2022-08-19T08:56:23.558Z,52.23
2022-08-19T08:58:59.504Z,52.33
2022-08-19T09:01:29.063Z,51.14
2022-08-19T09:04:02.915Z,52.33
2022-08-19T09:06:40.715Z,52.19
2022-08-19T09:09:17.751Z,51.67
2022-08-19T09:12:03.130Z,51.43
2022-08-19T09:14:51.621Z,51.62
2022-08-19T09:17:22.843Z,51.17
2022-08-19T09:19:56.228Z,50.32
2022-08-19T09:22:25.561Z,49.45
2022-08-19T09:24:55.337Z,48.65
2022-08-19T09:27:23.647Z,49.57
2022-08-19T09:30:14.223Z,49.93
2022-08-19T09:32:41.063Z,48.80
2022-08-19T09:35:08.726Z,49.63
2022-08-19T09:37:35.986Z,47.80
2022-08-19T09:40:03.614Z,48.15
2022-08-19T09:42:35.391Z,48.33
2022-08-19T09:45:05.006Z,47.78
2022-08-19T09:47:32.449Z,47.92
2022-08-19T09:49:59.269Z,47.38
2022-08-19T09:52:26.119Z,46.93
2022-08-19T09:55:00.540Z,46.35
2022-08-19T09:57:27.422Z,46.33
2022-08-19T09:59:54.328Z,46.16
2022-08-19T10:02:22.163Z,46.37
2022-08-19T10:04:49.485Z,46.83
2022-08-19T10:07:16.881Z,45.98
2022-08-19T10:09:44.761Z,45.52
2022-08-19T10:12:13.627Z,46.09
2022-08-19T10:14:44.983Z,46.45
2022-08-19T10:17:19.958Z,46.27
2022-08-19T10:19:55.158Z,46.01
2022-08-19T10:22:23.955Z,46.46
2022-08-19T10:24:53.411Z,46.89
2022-08-19T10:27:20.225Z,48.05
2022-08-19T10:29:47.151Z,50.07
2022-08-19T10:32:14.328Z,48.87
2022-08-19T10:34:48.633Z,49.75
2022-08-19T10:37:23.932Z,49.58
2022-08-19T10:39:56.279Z,49.63
2022-08-19T10:42:23.261Z,49.45
2022-08-19T10:44:51.877Z,49.58
2022-08-19T10:47:24.685Z,50.09
2022-08-19T10:49:54.283Z,52.06
2022-08-19T10:52:25.967Z,52.67
2022-08-19T10:54:59.650Z,55.49
2022-08-19T10:57:52.350Z,55.58
2022-08-19T11:00:22.078Z,53.15
2022-08-19T11:02:48.829Z,51.61
2022-08-19T11:05:16.479Z,52.40
2022-08-19T11:07:43.954Z,53.05
2022-08-19T11:10:16.167Z,52.75
2022-08-19T11:12:45.772Z,52.58
2022-08-19T11:15:12.572Z,52.44
2022-08-19T11:17:40.082Z,52.93
2022-08-19T11:20:07.511Z,52.42
2022-08-19T11:22:39.052Z,52.47
2022-08-19T11:25:11.400Z,52.15
2022-08-19T11:27:41.982Z,51.79
2022-08-19T11:30:12.964Z,51.79
2022-08-19T11:32:45.875Z,52.28
2022-08-19T11:35:15.586Z,51.45
2022-08-19T11:37:42.469Z,50.19
2022-08-19T11:40:10.025Z,49.25
2022-08-19T11:42:37.027Z,48.30
2022-08-19T11:45:04.497Z,48.49
2022-08-19T11:47:31.577Z,48.45
2022-08-19T11:49:58.353Z,48.40
2022-08-19T11:52:25.219Z,47.53
2022-08-19T11:54:52.064Z,46.97
2022-08-19T11:57:18.922Z,47.60
2022-08-19T11:59:52.915Z,47.78
2022-08-19T12:02:20.753Z,45.72
2022-08-19T12:04:47.773Z,45.72
2022-08-19T12:07:14.633Z,45.78
2022-08-19T12:09:42.676Z,45.39
2022-08-19T12:12:10.872Z,45.89
2022-08-19T12:14:37.814Z,44.47
2022-08-19T12:17:04.655Z,45.75
2022-08-19T12:19:31.717Z,45.30
2022-08-19T12:22:02.876Z,45.38
2022-08-19T12:24:32.894Z,45.66
2022-08-19T12:27:00.904Z,45.74
2022-08-19T12:29:30.943Z,46.17
2022-08-19T12:32:00.838Z,45.66
2022-08-19T12:34:29.700Z,45.85
2022-08-19T12:36:58.043Z,46.45
2022-08-19T12:39:26.619Z,45.97
2022-08-19T12:41:54.694Z,46.80
2022-08-19T12:44:29.199Z,46.73
2022-08-19T12:46:57.806Z,47.44
2022-08-19T12:49:52.386Z,52.65
2022-08-19T12:52:11.773Z,53.76
2022-08-19T12:54:41.019Z,54.14
2022-08-19T12:57:09.113Z,54.96
2022-08-19T12:59:37.150Z,54.71
2022-08-19T13:02:07.740Z,53.55
2022-08-19T13:04:36.249Z,55.43
2022-08-19T13:07:04.433Z,54.62
2022-08-19T13:09:31.383Z,54.43
2022-08-19T13:11:58.356Z,54.31
2022-08-19T13:14:25.166Z,54.79
2022-08-19T13:16:53.977Z,54.39
2022-08-19T13:19:20.960Z,55.34
2022-08-19T13:21:51.334Z,54.67
2022-08-19T13:24:31.383Z,54.34
2022-08-19T13:27:02.001Z,54.04
2022-08-19T13:29:32.278Z,53.63
2022-08-19T13:31:59.540Z,53.67
2022-08-19T13:34:33.560Z,53.85
2022-08-19T13:37:01.707Z,54.30
2022-08-19T13:39:28.526Z,55.10
2022-08-19T13:41:55.453Z,54.90
2022-08-19T13:44:22.449Z,55.01
2022-08-19T13:46:50.451Z,55.28
2022-08-19T13:49:21.630Z,55.43
2022-08-19T13:51:48.626Z,55.38
2022-08-19T13:54:15.529Z,54.59
2022-08-19T13:56:45.404Z,54.91
2022-08-19T13:59:13.411Z,54.29
2022-08-19T14:01:40.694Z,54.24
2022-08-19T14:04:08.292Z,54.04
2022-08-19T14:06:36.156Z,54.26
2022-08-19T14:09:03.165Z,53.47
2022-08-19T14:11:30.962Z,52.37
2022-08-19T14:13:58.117Z,52.24
2022-08-19T14:16:25.691Z,51.34
2022-08-19T14:18:52.507Z,51.71
2022-08-19T14:21:23.177Z,51.99
2022-08-19T14:23:50.168Z,52.23
2022-08-19T14:26:18.908Z,49.81
2022-08-19T14:28:46.998Z,50.69
2022-08-19T14:31:16.891Z,48.99
2022-08-19T14:33:43.723Z,47.77
2022-08-19T14:36:10.778Z,48.27
2022-08-19T14:38:37.630Z,47.91
2022-08-19T14:41:10.153Z,45.67
2022-08-19T14:43:37.192Z,45.88
2022-08-19T14:46:04.042Z,44.89
2022-08-19T14:48:30.930Z,45.13
2022-08-19T14:50:57.804Z,44.49
2022-08-19T14:53:24.572Z,44.79
2022-08-19T14:55:51.896Z,44.81
2022-08-19T14:58:29.012Z,44.31
2022-08-19T15:00:59.853Z,44.42
2022-08-19T15:03:27.175Z,44.59
2022-08-19T15:05:54.143Z,44.30
2022-08-19T15:08:20.947Z,44.76
2022-08-19T15:10:47.767Z,44.07
2022-08-19T15:13:15.397Z,44.93
2022-08-19T15:15:42.613Z,45.41
2022-08-19T15:18:10.312Z,44.87
2022-08-19T15:20:37.568Z,44.44
2022-08-19T15:23:04.379Z,44.07
2022-08-19T15:25:31.256Z,44.36
2022-08-19T15:27:58.002Z,44.49
2022-08-19T15:30:28.160Z,44.00
2022-08-19T15:32:56.590Z,45.08
2022-08-19T15:35:24.592Z,43.84
2022-08-19T15:37:54.094Z,44.42
2022-08-19T15:40:22.779Z,44.14
2022-08-19T15:42:49.811Z,43.91
2022-08-19T15:45:18.870Z,43.82
2022-08-19T15:47:45.865Z,44.27
2022-08-19T15:50:20.890Z,44.13
2022-08-19T15:52:54.832Z,44.04
2022-08-19T15:55:33.628Z,43.92
2022-08-19T15:58:07.956Z,43.82
2022-08-19T16:00:52.843Z,44.34
2022-08-19T16:03:20.163Z,44.03
2022-08-19T16:05:46.937Z,44.15
2022-08-19T16:08:13.778Z,44.32
2022-08-19T16:10:40.600Z,43.85
2022-08-19T16:13:07.537Z,44.15
2022-08-19T16:15:35.540Z,44.02
2022-08-19T16:18:02.385Z,44.43
2022-08-19T16:20:29.949Z,44.45
2022-08-19T16:22:59.280Z,44.41
2022-08-19T16:25:27.668Z,44.68
2022-08-19T16:28:06.321Z,44.39
2022-08-19T16:30:36.494Z,44.72
2022-08-19T16:33:04.264Z,44.84
2022-08-19T16:35:31.163Z,45.07
2022-08-19T16:37:57.923Z,44.54
2022-08-19T16:40:24.856Z,44.31
2022-08-19T16:42:51.616Z,44.40
2022-08-19T16:45:18.795Z,44.50
2022-08-19T16:47:45.881Z,44.13
2022-08-19T16:50:12.900Z,44.55
2022-08-19T16:52:39.766Z,44.15
2022-08-19T16:55:06.788Z,44.08
2022-08-19T16:57:33.546Z,44.80
2022-08-19T17:00:00.626Z,44.90
2022-08-19T17:02:29.539Z,45.86
2022-08-19T17:04:58.776Z,45.49
2022-08-19T17:07:28.616Z,45.78
2022-08-19T17:09:56.503Z,45.89
2022-08-19T17:12:31.598Z,46.04
2022-08-19T17:15:01.898Z,46.03
2022-08-19T17:17:30.234Z,45.96
2022-08-19T17:19:59.529Z,45.96
2022-08-19T17:22:27.211Z,45.96
2022-08-19T17:24:58.037Z,46.19
2022-08-19T17:27:32.110Z,46.18
2022-08-19T17:30:01.064Z,46.23
2022-08-19T17:32:27.963Z,46.50
2022-08-19T17:34:54.828Z,46.57
2022-08-19T17:37:22.141Z,46.53
2022-08-19T17:39:49.293Z,46.56
2022-08-19T17:42:16.317Z,46.86
2022-08-19T17:44:44.838Z,46.85
2022-08-19T17:47:17.514Z,47.01
2022-08-19T17:49:44.205Z,46.83
2022-08-19T17:52:11.155Z,47.16
2022-08-19T17:54:37.889Z,47.41
2022-08-19T17:57:04.965Z,47.19
2022-08-19T17:59:31.709Z,47.59
2022-08-19T18:01:59.589Z,47.58
2022-08-19T18:04:27.178Z,47.25
2022-08-19T18:06:55.604Z,47.73
2022-08-19T18:09:27.735Z,47.47
2022-08-19T18:11:57.410Z,47.63
2022-08-19T18:14:32.072Z,47.94
2022-08-19T18:17:07.471Z,48.44
2022-08-19T18:19:41.000Z,48.29
2022-08-19T18:22:08.756Z,48.32
2022-08-19T18:24:39.379Z,48.47
2022-08-19T18:27:06.153Z,48.34
2022-08-19T18:29:32.966Z,48.48
2022-08-19T18:31:59.766Z,48.44
2022-08-19T18:34:26.685Z,48.82
2022-08-19T18:36:54.165Z,48.62
2022-08-19T18:39:21.581Z,49.37
2022-08-19T18:41:49.345Z,48.77
2022-08-19T18:44:16.178Z,48.18
2022-08-19T18:46:43.406Z,48.41
2022-08-19T18:49:12.352Z,50.13
2022-08-19T18:51:40.806Z,50.22
2022-08-19T18:54:07.619Z,50.12
2022-08-19T18:56:34.408Z,50.67
2022-08-19T18:59:01.992Z,51.48
2022-08-19T19:01:36.962Z,51.99
2022-08-19T19:04:09.334Z,50.78
2022-08-19T19:06:37.100Z,50.35
2022-08-19T19:09:05.563Z,50.54
2022-08-19T19:11:36.294Z,58.08
2022-08-19T19:14:06.751Z,63.07
2022-08-19T19:16:33.572Z,63.50
2022-08-19T19:19:01.203Z,65.25
2022-08-19T19:21:31.843Z,65.99
2022-08-19T19:24:02.293Z,63.28
2022-08-19T19:26:29.211Z,64.00
2022-08-19T19:28:56.342Z,68.41
2022-08-19T19:31:26.739Z,59.41
2022-08-19T19:33:55.850Z,58.74
2022-08-19T19:36:23.670Z,61.87
2022-08-19T19:38:50.863Z,61.89
2022-08-19T19:41:21.158Z,62.20
2022-08-19T19:43:48.008Z,60.42
2022-08-19T19:46:33.337Z,57.88
2022-08-19T19:49:00.505Z,58.29
2022-08-19T19:51:30.549Z,59.48
2022-08-19T19:54:05.502Z,60.78
2022-08-19T19:56:33.527Z,63.85
2022-08-19T19:59:00.774Z,65.94
2022-08-19T20:01:27.650Z,68.02
2022-08-19T20:03:54.533Z,70.01
2022-08-19T20:06:21.605Z,68.82
2022-08-19T20:08:48.567Z,70.11
2022-08-19T20:11:30.914Z,71.07
2022-08-19T20:13:59.987Z,72.79
2022-08-19T20:16:27.494Z,76.16
2022-08-19T20:18:55.628Z,76.07
2022-08-19T20:21:26.067Z,72.12
2022-08-19T20:24:09.471Z,77.30
2022-08-19T20:26:37.579Z,76.14
2022-08-19T20:29:13.557Z,73.85
2022-08-19T20:31:59.003Z,73.95
2022-08-19T20:34:27.868Z,76.39
2022-08-19T20:36:54.728Z,76.78
2022-08-19T20:39:21.624Z,79.21
2022-08-19T20:41:48.463Z,79.90
2022-08-19T20:44:15.359Z,79.67
2022-08-19T20:46:42.269Z,81.15
2022-08-19T20:49:22.581Z,81.56
2022-08-19T20:51:49.393Z,80.43
2022-08-19T20:54:16.270Z,82.66
2022-08-19T20:56:43.201Z,82.21
2022-08-19T20:59:10.003Z,82.68
2022-08-19T21:01:37.382Z,81.39
2022-08-19T21:04:05.216Z,79.30
2022-08-19T21:06:31.984Z,79.74
2022-08-19T21:08:59.380Z,79.92
2022-08-19T21:11:26.193Z,82.00
2022-08-19T21:13:53.004Z,83.78
2022-08-19T21:16:19.885Z,84.44
2022-08-19T21:18:46.630Z,83.30
2022-08-19T21:21:13.523Z,78.55
2022-08-19T21:23:40.425Z,81.00
2022-08-19T21:26:08.258Z,78.97
2022-08-19T21:28:36.594Z,75.48
2022-08-19T21:31:06.291Z,79.70
2022-08-19T21:33:33.292Z,82.71
2022-08-19T21:36:01.082Z,83.60
2022-08-19T21:38:28.111Z,84.45
2022-08-19T21:40:56.282Z,84.29
2022-08-19T21:43:24.818Z,81.90
2022-08-19T21:45:51.650Z,81.70
2022-08-19T21:48:19.619Z,81.18
2022-08-19T21:50:48.665Z,78.20
2022-08-19T21:53:19.325Z,77.75
2022-08-19T21:55:53.535Z,73.62
2022-08-19T21:58:30.215Z,71.88
2022-08-19T22:00:59.615Z,71.88
2022-08-19T22:03:27.463Z,70.67
2022-08-19T22:05:54.285Z,70.82
2022-08-19T22:08:21.130Z,73.45
2022-08-19T22:10:47.953Z,73.49
2022-08-19T22:13:14.803Z,71.04
2022-08-19T22:15:41.596Z,72.83
2022-08-19T22:18:09.688Z,70.49
2022-08-19T22:20:37.718Z,71.03
2022-08-19T22:23:08.462Z,71.31
2022-08-19T22:25:41.460Z,71.83
2022-08-19T22:28:12.112Z,72.25
2022-08-19T22:30:42.492Z,72.46
2022-08-19T22:33:13.312Z,72.73
2022-08-19T22:35:42.424Z,74.48
2022-08-19T22:38:10.909Z,73.98
2022-08-19T22:40:42.861Z,74.08
2022-08-19T22:43:20.391Z,74.63
2022-08-19T22:45:48.900Z,75.18
2022-08-19T22:48:19.658Z,74.69
2022-08-19T22:50:47.983Z,74.62
2022-08-19T22:53:15.690Z,75.94
2022-08-19T22:55:42.560Z,75.59
2022-08-19T22:58:09.431Z,76.04
2022-08-19T23:00:36.284Z,75.69
2022-08-19T23:03:03.171Z,76.43
2022-08-19T23:05:30.110Z,76.14
2022-08-19T23:07:58.253Z,76.39
2022-08-19T23:10:27.984Z,76.87
2022-08-19T23:12:57.981Z,77.06
2022-08-19T23:15:28.682Z,77.79
2022-08-19T23:17:59.418Z,76.84
2022-08-19T23:20:29.925Z,77.26
2022-08-19T23:22:57.657Z,77.20
2022-08-19T23:25:28.068Z,76.54
2022-08-19T23:27:55.573Z,77.03
2022-08-19T23:30:23.019Z,76.76
2022-08-19T23:32:50.662Z,76.76
2022-08-19T23:35:17.499Z,76.73
2022-08-19T23:37:44.460Z,76.70
2022-08-19T23:40:12.023Z,76.99
2022-08-19T23:42:42.929Z,76.98
2022-08-19T23:45:10.122Z,76.84
2022-08-19T23:47:37.821Z,77.58
2022-08-19T23:50:08.959Z,77.67
2022-08-19T23:52:50.901Z,77.60
2022-08-19T23:55:20.072Z,77.11
2022-08-19T23:57:46.829Z,77.27
